createdAt,value
2022-11-05T00:01:10.953Z,101433.80
2022-11-05T00:03:38.991Z,101435.77
2022-11-05T00:06:10.688Z,101437.05
2022-11-05T00:08:40.351Z,101436.55
2022-11-05T00:11:16.762Z,101432.44
2022-11-05T00:13:46.172Z,101426.69
2022-11-05T00:16:14.149Z,101422.59
2022-11-05T00:18:42.221Z,101418.04
2022-11-05T00:21:10.297Z,101415.44
2022-11-05T00:23:38.476Z,101405.80
2022-11-05T00:26:09.112Z,101399.27
2022-11-05T00:28:38.177Z,101399.75
2022-11-05T00:31:11.210Z,101403.45
2022-11-05T00:33:40.536Z,101408.44
2022-11-05T00:36:11.401Z,101409.69
2022-11-05T00:38:39.624Z,101408.15
2022-11-05T00:41:07.674Z,101407.17
2022-11-05T00:43:35.977Z,101410.08
2022-11-05T00:46:04.064Z,101417.44
2022-11-05T00:48:32.337Z,101420.08
2022-11-05T00:51:00.614Z,101421.04
2022-11-05T00:53:29.206Z,101420.27
2022-11-05T00:55:57.176Z,101415.48
2022-11-05T00:58:25.252Z,101412.63
2022-11-05T01:00:56.245Z,101412.92
2022-11-05T01:03:36.344Z,101417.41
2022-11-05T01:06:13.569Z,101413.90
2022-11-05T01:08:44.369Z,101412.65
2022-11-05T01:11:16.179Z,101410.20
2022-11-05T01:13:44.615Z,101409.09
2022-11-05T01:16:13.249Z,101407.70
2022-11-05T01:18:41.381Z,101403.52
2022-11-05T01:21:14.060Z,101399.98
2022-11-05T01:23:42.237Z,101406.42
2022-11-05T01:26:10.454Z,101413.13
2022-11-05T01:28:38.851Z,101420.48
2022-11-05T01:31:07.183Z,101418.16
2022-11-05T01:33:35.361Z,101409.59
2022-11-05T01:36:05.486Z,101407.63
2022-11-05T01:38:33.560Z,101396.41
2022-11-05T01:41:01.639Z,101392.48
2022-11-05T01:43:56.188Z,101390.64
2022-11-05T01:46:40.895Z,101392.27
2022-11-05T01:49:32.700Z,101393.63
2022-11-05T01:52:04.688Z,101398.33
2022-11-05T01:54:34.886Z,101396.95
2022-11-05T01:57:08.167Z,101395.09
2022-11-05T01:59:48.584Z,101394.39
2022-11-05T02:02:18.044Z,101391.00
2022-11-05T02:04:55.103Z,101392.30
2022-11-05T02:07:25.609Z,101393.01
2022-11-05T02:10:02.321Z,101387.28
2022-11-05T02:12:33.042Z,101384.05
2022-11-05T02:15:01.032Z,101383.98
2022-11-05T02:17:47.733Z,101385.59
2022-11-05T02:20:34.126Z,101387.53
2022-11-05T02:23:08.177Z,101387.86
2022-11-05T02:26:12.746Z,101392.70
2022-11-05T02:28:51.466Z,101390.91
2022-11-05T02:31:41.651Z,101389.63
2022-11-05T02:34:32.444Z,101386.41
2022-11-05T02:37:14.732Z,101385.92
2022-11-05T02:40:15.144Z,101385.52
2022-11-05T02:42:54.386Z,101384.48
2022-11-05T02:45:46.718Z,101385.92
2022-11-05T02:48:22.209Z,101382.71
2022-11-05T02:51:10.025Z,101385.15
2022-11-05T02:54:03.245Z,101386.19
2022-11-05T02:56:36.119Z,101383.43
2022-11-05T02:59:04.299Z,101382.86
2022-11-05T03:01:32.686Z,101382.72
2022-11-05T03:04:04.039Z,101378.44
2022-11-05T03:06:54.011Z,101377.96
2022-11-05T03:09:28.610Z,101377.23
2022-11-05T03:11:56.620Z,101372.56
2022-11-05T03:14:24.688Z,101373.92
2022-11-05T03:17:10.145Z,101375.95
2022-11-05T03:19:38.117Z,101377.79
2022-11-05T03:22:14.100Z,101374.08
2022-11-05T03:24:49.149Z,101378.76
2022-11-05T03:27:21.728Z,101378.36
2022-11-05T03:29:54.808Z,101373.45
2022-11-05T03:32:24.726Z,101371.09
2022-11-05T03:35:00.148Z,101369.65
2022-11-05T03:37:34.247Z,101369.26
2022-11-05T03:40:06.689Z,101376.49
2022-11-05T03:42:38.992Z,101378.19
2022-11-05T03:45:25.914Z,101377.31
2022-11-05T03:47:58.134Z,101376.02
2022-11-05T03:51:01.465Z,101372.95
2022-11-05T03:53:36.870Z,101369.89
2022-11-05T03:56:18.192Z,101368.92
2022-11-05T03:58:48.439Z,101361.19
2022-11-05T04:01:16.711Z,101361.10
2022-11-05T04:03:44.972Z,101360.21
2022-11-05T04:06:14.018Z,101355.86
2022-11-05T04:08:42.248Z,101354.76
2022-11-05T04:11:11.702Z,101353.69
2022-11-05T04:13:40.141Z,101349.66
2022-11-05T04:16:08.215Z,101340.88
2022-11-05T04:18:36.600Z,101336.21
2022-11-05T04:21:06.218Z,101333.96
2022-11-05T04:23:34.286Z,101330.47
2022-11-05T04:26:02.399Z,101327.23
2022-11-05T04:28:30.850Z,101330.20
2022-11-05T04:30:59.034Z,101340.23
2022-11-05T04:33:27.111Z,101345.39
2022-11-05T04:35:55.286Z,101353.77
2022-11-05T04:38:23.869Z,101360.37
2022-11-05T04:40:52.046Z,101364.64
2022-11-05T04:43:20.339Z,101372.14
2022-11-05T04:45:48.815Z,101378.02
2022-11-05T04:48:17.095Z,101383.00
2022-11-05T04:50:45.270Z,101388.48
2022-11-05T04:53:13.681Z,101392.77
2022-11-05T04:55:41.936Z,101397.36
2022-11-05T04:58:10.421Z,101397.85
2022-11-05T05:00:38.526Z,101399.05
2022-11-05T05:03:06.881Z,101390.49
2022-11-05T05:05:35.535Z,101397.81
2022-11-05T05:08:07.017Z,101397.48
2022-11-05T05:10:35.097Z,101398.47
2022-11-05T05:13:03.281Z,101403.21
2022-11-05T05:15:31.458Z,101399.03
2022-11-05T05:17:59.633Z,101399.65
2022-11-05T05:20:28.117Z,101397.67
2022-11-05T05:22:56.403Z,101398.56
2022-11-05T05:25:24.577Z,101397.85
2022-11-05T05:27:52.864Z,101395.95
2022-11-05T05:30:21.139Z,101393.06
2022-11-05T05:32:49.322Z,101393.14
2022-11-05T05:35:17.596Z,101396.45
2022-11-05T05:37:45.677Z,101394.85
2022-11-05T05:40:13.853Z,101399.02
2022-11-05T05:42:43.584Z,101403.85
2022-11-05T05:45:12.461Z,101405.55
2022-11-05T05:47:40.535Z,101407.08
2022-11-05T05:50:08.714Z,101410.63
2022-11-05T05:52:36.897Z,101410.23
2022-11-05T05:55:05.595Z,101414.23
2022-11-05T05:57:34.682Z,101414.95
2022-11-05T06:00:03.987Z,101419.79
2022-11-05T06:02:32.189Z,101417.70
2022-11-05T06:05:00.311Z,101415.69
2022-11-05T06:07:31.777Z,101417.14
2022-11-05T06:10:02.943Z,101422.20
2022-11-05T06:12:31.134Z,101421.36
2022-11-05T06:14:59.300Z,101424.65
2022-11-05T06:17:27.499Z,101428.02
2022-11-05T06:19:55.757Z,101435.49
2022-11-05T06:22:23.936Z,101439.27
2022-11-05T06:24:52.013Z,101441.60
2022-11-05T06:27:20.393Z,101446.05
2022-11-05T06:29:48.394Z,101442.77
2022-11-05T06:32:16.649Z,101444.19
2022-11-05T06:34:44.732Z,101453.45
2022-11-05T06:37:12.817Z,101459.90
2022-11-05T06:39:41.183Z,101457.46
2022-11-05T06:42:18.399Z,101456.55
2022-11-05T06:44:47.472Z,101460.46
2022-11-05T06:47:15.648Z,101461.56
2022-11-05T06:49:43.821Z,101458.63
2022-11-05T06:52:13.330Z,101462.64
2022-11-05T06:54:42.227Z,101459.52
2022-11-05T06:57:12.261Z,101459.41
2022-11-05T06:59:40.861Z,101464.70
2022-11-05T07:02:12.523Z,101466.29
2022-11-05T07:04:40.771Z,101467.35
2022-11-05T07:07:08.949Z,101467.14
2022-11-05T07:09:37.541Z,101467.00
2022-11-05T07:12:06.136Z,101471.16
2022-11-05T07:14:34.209Z,101473.63
2022-11-05T07:17:02.589Z,101473.52
2022-11-05T07:19:30.902Z,101474.38
2022-11-05T07:21:59.054Z,101474.35
2022-11-05T07:24:27.223Z,101476.55
2022-11-05T07:26:55.401Z,101478.10
2022-11-05T07:29:23.683Z,101484.58
2022-11-05T07:31:51.763Z,101490.33
2022-11-05T07:34:20.145Z,101493.48
2022-11-05T07:36:48.450Z,101494.14
2022-11-05T07:39:16.708Z,101493.02
2022-11-05T07:41:44.882Z,101491.79
2022-11-05T07:44:13.170Z,101496.06
2022-11-05T07:46:42.057Z,101503.16
2022-11-05T07:49:10.133Z,101509.27
2022-11-05T07:51:38.316Z,101513.21
2022-11-05T07:54:06.490Z,101513.61
2022-11-05T07:56:34.770Z,101514.73
2022-11-05T07:59:03.051Z,101519.31
2022-11-05T08:01:31.353Z,101523.48
2022-11-05T08:03:59.718Z,101529.44
2022-11-05T08:06:27.889Z,101529.66
2022-11-05T08:08:56.071Z,101531.86
2022-11-05T08:11:24.159Z,101540.23
2022-11-05T08:13:52.323Z,101544.88
2022-11-05T08:16:20.500Z,101547.63
2022-11-05T08:18:48.684Z,101551.47
2022-11-05T08:21:16.861Z,101558.98
2022-11-05T08:23:45.039Z,101562.14
2022-11-05T08:26:13.420Z,101566.52
2022-11-05T08:28:41.599Z,101560.08
2022-11-05T08:31:09.781Z,101562.66
2022-11-05T08:33:37.961Z,101568.16
2022-11-05T08:36:06.448Z,101573.30
2022-11-05T08:38:34.618Z,101572.83
2022-11-05T08:41:02.701Z,101575.20
2022-11-05T08:43:30.873Z,101566.62
2022-11-05T08:46:01.200Z,101564.52
2022-11-05T08:48:29.627Z,101566.24
2022-11-05T08:51:00.688Z,101568.13
2022-11-05T08:53:28.806Z,101575.89
2022-11-05T08:56:00.696Z,101576.16
2022-11-05T08:58:28.854Z,101579.98
2022-11-05T09:01:01.782Z,101575.14
2022-11-05T09:03:32.880Z,101578.61
2022-11-05T09:06:01.059Z,101579.46
2022-11-05T09:08:29.234Z,101575.71
2022-11-05T09:10:57.926Z,101576.52
2022-11-05T09:13:26.835Z,101577.14
2022-11-05T09:15:55.510Z,101580.86
2022-11-05T09:18:23.689Z,101578.41
2022-11-05T09:20:52.875Z,101577.46
2022-11-05T09:23:20.967Z,101581.20
2022-11-05T09:25:49.145Z,101580.02
2022-11-05T09:28:20.060Z,101580.56
2022-11-05T09:30:50.788Z,101576.35
2022-11-05T09:33:22.171Z,101580.95
2022-11-05T09:35:51.683Z,101577.93
2022-11-05T09:38:19.978Z,101581.77
2022-11-05T09:41:00.449Z,101586.38
2022-11-05T09:43:37.606Z,101588.06
2022-11-05T09:46:12.124Z,101584.94
2022-11-05T09:48:42.554Z,101585.82
2022-11-05T09:51:19.269Z,101580.89
2022-11-05T09:53:51.702Z,101583.63
2022-11-05T09:56:26.742Z,101584.16
2022-11-05T09:59:22.984Z,101589.34
2022-11-05T10:01:56.716Z,101593.82
2022-11-05T10:04:25.473Z,101592.81
2022-11-05T10:06:58.545Z,101593.80
2022-11-05T10:09:43.709Z,101591.42
2022-11-05T10:12:39.281Z,101590.05
2022-11-05T10:15:41.229Z,101592.10
2022-11-05T10:18:23.302Z,101602.38
2022-11-05T10:20:51.643Z,101600.80
2022-11-05T10:23:22.110Z,101606.53
2022-11-05T10:26:09.099Z,101601.96
2022-11-05T10:28:39.742Z,101601.63
2022-11-05T10:31:15.174Z,101602.66
2022-11-05T10:34:03.154Z,101603.31
2022-11-05T10:36:36.962Z,101604.37
2022-11-05T10:39:17.688Z,101603.79
2022-11-05T10:42:04.557Z,101607.02
2022-11-05T10:44:52.370Z,101614.32
2022-11-05T10:47:52.595Z,101618.09
2022-11-05T10:50:25.219Z,101614.60
2022-11-05T10:53:13.575Z,101613.82
2022-11-05T10:55:46.531Z,101615.95
2022-11-05T10:58:17.635Z,101615.66
2022-11-05T11:00:52.325Z,101615.07
2022-11-05T11:03:34.779Z,101613.00
2022-11-05T11:06:12.776Z,101613.46
2022-11-05T11:08:45.437Z,101606.68
2022-11-05T11:11:30.216Z,101609.50
2022-11-05T11:13:59.925Z,101602.89
2022-11-05T11:16:32.863Z,101604.48
2022-11-05T11:19:02.593Z,101600.27
2022-11-05T11:21:32.345Z,101594.46
2022-11-05T11:24:05.850Z,101590.38
2022-11-05T11:26:37.232Z,101591.70
2022-11-05T11:29:05.275Z,101594.39
2022-11-05T11:31:38.530Z,101597.54
2022-11-05T11:34:20.760Z,101594.60
2022-11-05T11:36:56.803Z,101590.36
2022-11-05T11:39:29.403Z,101586.27
2022-11-05T11:42:01.722Z,101590.16
2022-11-05T11:44:34.820Z,101591.31
2022-11-05T11:47:13.378Z,101587.52
2022-11-05T11:49:58.033Z,101585.50
2022-11-05T11:52:37.094Z,101580.20
2022-11-05T11:55:11.287Z,101584.64
2022-11-05T11:57:53.984Z,101579.55
2022-11-05T12:00:24.723Z,101576.14
2022-11-05T12:03:11.742Z,101572.63
2022-11-05T12:06:01.817Z,101576.80
2022-11-05T12:08:30.084Z,101575.45
2022-11-05T12:11:00.819Z,101570.49
2022-11-05T12:13:54.058Z,101564.88
2022-11-05T12:16:25.215Z,101559.58
2022-11-05T12:19:03.225Z,101562.08
2022-11-05T12:21:58.429Z,101564.60
2022-11-05T12:25:02.921Z,101561.20
2022-11-05T12:27:40.501Z,101557.58
2022-11-05T12:30:14.972Z,101557.98
2022-11-05T12:33:07.722Z,101558.30
2022-11-05T12:36:07.675Z,101551.84
2022-11-05T12:38:52.739Z,101544.91
2022-11-05T12:41:49.782Z,101539.73
2022-11-05T12:44:23.891Z,101532.54
2022-11-05T12:47:01.175Z,101534.52
2022-11-05T12:49:44.395Z,101533.96
2022-11-05T12:52:52.591Z,101533.59
2022-11-05T12:55:24.551Z,101529.52
2022-11-05T12:57:55.188Z,101527.35
2022-11-05T13:00:26.086Z,101523.02
2022-11-05T13:03:06.584Z,101520.43
2022-11-05T13:05:44.074Z,101519.41
2022-11-05T13:08:29.145Z,101521.25
2022-11-05T13:11:19.111Z,101513.67
2022-11-05T13:14:11.875Z,101509.15
2022-11-05T13:17:02.497Z,101510.39
2022-11-05T13:19:57.575Z,101501.16
2022-11-05T13:23:01.423Z,101497.92
2022-11-05T13:25:34.773Z,101495.77
2022-11-05T13:28:25.421Z,101491.88
2022-11-05T13:30:58.024Z,101499.24
2022-11-05T13:33:47.457Z,101502.95
2022-11-05T13:36:20.882Z,101495.06
2022-11-05T13:39:21.794Z,101494.36
2022-11-05T13:42:05.305Z,101495.63
2022-11-05T13:45:11.244Z,101498.40
2022-11-05T13:47:54.985Z,101501.72
2022-11-05T13:50:42.905Z,101489.40
2022-11-05T13:53:48.640Z,101487.00
2022-11-05T13:56:53.658Z,101485.14
2022-11-05T13:59:49.982Z,101492.98
2022-11-05T14:02:22.807Z,101488.84
2022-11-05T14:05:00.785Z,101482.63
2022-11-05T14:07:33.443Z,101481.10
2022-11-05T14:10:21.585Z,101480.27
2022-11-05T14:12:53.346Z,101480.23
2022-11-05T14:15:25.217Z,101482.30
2022-11-05T14:18:34.958Z,101474.80
2022-11-05T14:21:05.482Z,101474.14
2022-11-05T14:23:40.395Z,101468.48
2022-11-05T14:26:11.844Z,101466.69
2022-11-05T14:28:46.623Z,101466.98
2022-11-05T14:31:47.405Z,101470.77
2022-11-05T14:34:20.859Z,101469.52
2022-11-05T14:37:10.763Z,101467.91
2022-11-05T14:39:40.479Z,101463.67
2022-11-05T14:42:22.795Z,101464.73
2022-11-05T14:45:30.052Z,101461.75
2022-11-05T14:48:05.040Z,101469.02
2022-11-05T14:50:41.808Z,101475.86
2022-11-05T14:53:12.147Z,101470.69
2022-11-05T14:55:43.640Z,101467.11
2022-11-05T14:58:18.057Z,101473.30
2022-11-05T15:00:48.012Z,101479.54
2022-11-05T15:03:47.062Z,101478.09
2022-11-05T15:06:37.145Z,101481.48
2022-11-05T15:09:40.723Z,101475.86
2022-11-05T15:12:20.059Z,101476.11
2022-11-05T15:15:21.210Z,101478.52
2022-11-05T15:17:58.985Z,101481.16
2022-11-05T15:20:44.663Z,101472.98
2022-11-05T15:23:19.627Z,101475.02
2022-11-05T15:26:30.770Z,101475.73
2022-11-05T15:29:01.114Z,101479.98
2022-11-05T15:31:34.698Z,101481.58
2022-11-05T15:34:27.525Z,101483.77
2022-11-05T15:37:03.073Z,101483.54
2022-11-05T15:39:44.144Z,101486.42
2022-11-05T15:42:15.294Z,101487.32
2022-11-05T15:45:03.730Z,101481.73
2022-11-05T15:47:35.281Z,101480.21
2022-11-05T15:50:14.690Z,101482.17
2022-11-05T15:52:52.471Z,101480.58
2022-11-05T15:55:25.827Z,101481.95
2022-11-05T15:57:56.647Z,101484.95
2022-11-05T16:00:31.195Z,101483.23
2022-11-05T16:03:03.440Z,101482.36
2022-11-05T16:05:35.773Z,101483.19
2022-11-05T16:08:04.200Z,101478.98
2022-11-05T16:10:36.983Z,101481.95
2022-11-05T16:13:50.595Z,101488.89
2022-11-05T16:16:18.782Z,101485.28
2022-11-05T16:18:47.422Z,101481.47
2022-11-05T16:21:20.526Z,101478.45
2022-11-05T16:23:48.814Z,101477.16
2022-11-05T16:29:35.645Z,101489.12
2022-11-05T16:32:31.145Z,101483.25
2022-11-05T16:35:02.947Z,101478.30
2022-11-05T16:37:40.301Z,101476.55
2022-11-05T16:40:18.185Z,101482.75
2022-11-05T16:42:46.985Z,101478.74
2022-11-05T16:45:17.178Z,101482.66
2022-11-05T16:47:46.207Z,101482.34
2022-11-05T16:50:27.408Z,101482.70
2022-11-05T16:52:55.663Z,101485.71
2022-11-05T16:55:24.047Z,101487.30
2022-11-05T16:57:54.669Z,101485.95
2022-11-05T17:00:24.634Z,101485.96
2022-11-05T17:02:53.590Z,101485.44
2022-11-05T17:05:27.607Z,101484.65
2022-11-05T17:07:56.306Z,101483.27
2022-11-05T17:10:26.116Z,101488.65
2022-11-05T17:12:54.603Z,101492.73
2022-11-05T17:15:31.111Z,101495.09
2022-11-05T17:17:59.985Z,101494.14
2022-11-05T17:20:34.963Z,101499.33
2022-11-05T17:23:07.687Z,101502.67
2022-11-05T17:25:36.274Z,101507.55
2022-11-05T17:28:05.067Z,101510.81
2022-11-05T17:30:33.558Z,101508.01
2022-11-05T17:33:01.717Z,101510.98
2022-11-05T17:35:30.205Z,101513.99
2022-11-05T17:37:58.383Z,101520.83
2022-11-05T17:40:26.457Z,101522.41
2022-11-05T17:42:54.729Z,101523.67
2022-11-05T17:45:23.120Z,101521.50
2022-11-05T17:47:51.479Z,101521.11
2022-11-05T17:50:20.294Z,101521.15
2022-11-05T17:52:48.560Z,101523.64
2022-11-05T17:55:16.848Z,101527.64
2022-11-05T17:57:50.501Z,101527.78
2022-11-05T18:00:23.790Z,101531.69
2022-11-05T18:02:53.757Z,101533.80
2022-11-05T18:05:23.092Z,101532.67
2022-11-05T18:07:51.645Z,101531.13
2022-11-05T18:10:20.458Z,101531.85
2022-11-05T18:12:49.110Z,101532.44
2022-11-05T18:15:18.145Z,101534.09
2022-11-05T18:17:46.636Z,101537.51
2022-11-05T18:20:19.220Z,101542.02
2022-11-05T18:22:52.105Z,101538.83
2022-11-05T18:25:20.273Z,101543.69
2022-11-05T18:27:48.348Z,101540.29
2022-11-05T18:30:16.885Z,101545.46
2022-11-05T18:32:45.372Z,101544.91
2022-11-05T18:35:13.707Z,101548.85
2022-11-05T18:37:42.209Z,101553.42
2022-11-05T18:40:10.980Z,101552.35
2022-11-05T18:42:39.985Z,101554.83
2022-11-05T18:45:09.808Z,101556.30
2022-11-05T18:47:38.187Z,101559.90
2022-11-05T18:50:07.815Z,101559.64
2022-11-05T18:52:36.274Z,101553.02
2022-11-05T18:55:04.859Z,101551.39
2022-11-05T18:57:34.227Z,101552.73
2022-11-05T19:00:02.404Z,101558.54
2022-11-05T19:02:30.793Z,101565.54
2022-11-05T19:07:47.445Z,101562.96
2022-11-05T19:10:16.034Z,101559.35
2022-11-05T19:12:44.212Z,101557.03
2022-11-05T19:15:12.497Z,101556.64
2022-11-05T19:17:40.656Z,101558.78
2022-11-05T19:20:09.666Z,101561.50
2022-11-05T19:22:37.886Z,101562.19
2022-11-05T19:25:06.741Z,101558.35
2022-11-05T19:27:35.958Z,101559.16
2022-11-05T19:30:06.578Z,101557.20
2022-11-05T19:32:34.653Z,101556.95
2022-11-05T19:35:02.852Z,101559.14
2022-11-05T19:37:31.394Z,101557.48
2022-11-05T19:39:59.704Z,101560.11
2022-11-05T19:42:27.883Z,101562.75
2022-11-05T19:44:56.261Z,101561.60
2022-11-05T19:47:24.448Z,101561.02
2022-11-05T19:49:52.540Z,101567.05
2022-11-05T19:52:21.414Z,101568.48
2022-11-05T19:54:49.462Z,101569.06
2022-11-05T19:57:17.664Z,101568.87
2022-11-05T19:59:45.740Z,101565.40
2022-11-05T20:02:16.485Z,101563.52
2022-11-05T20:04:44.757Z,101559.67
2022-11-05T20:07:13.042Z,101560.84
2022-11-05T20:09:41.533Z,101568.20
2022-11-05T20:12:09.827Z,101573.05
2022-11-05T20:14:38.289Z,101570.55
2022-11-05T20:17:06.365Z,101570.70
2022-11-05T20:19:34.543Z,101564.56
2022-11-05T20:22:02.723Z,101568.48
2022-11-05T20:24:31.001Z,101567.90
2022-11-05T20:26:59.079Z,101574.54
2022-11-05T20:29:33.811Z,101573.85
2022-11-05T20:32:04.542Z,101570.24
2022-11-05T20:34:34.065Z,101566.48
2022-11-05T20:37:02.439Z,101568.64
2022-11-05T20:39:30.823Z,101566.80
2022-11-05T20:41:58.994Z,101570.27
2022-11-05T20:44:27.173Z,101575.30
2022-11-05T20:46:55.919Z,101578.92
2022-11-05T20:49:25.844Z,101580.34
2022-11-05T20:51:54.578Z,101581.66
2022-11-05T20:54:23.268Z,101583.66
2022-11-05T20:56:51.650Z,101581.23
2022-11-05T20:59:19.793Z,101579.73
2022-11-05T21:01:50.195Z,101582.38
2022-11-05T21:04:18.802Z,101578.88
2022-11-05T21:06:46.818Z,101582.21
2022-11-05T21:09:14.994Z,101579.97
2022-11-05T21:11:43.507Z,101581.83
2022-11-05T21:14:11.658Z,101573.69
2022-11-05T21:16:39.836Z,101572.81
2022-11-05T21:19:08.323Z,101573.55
2022-11-05T21:21:40.781Z,101578.50
2022-11-05T21:24:09.607Z,101583.54
2022-11-05T21:26:37.606Z,101578.63
2022-11-05T21:29:05.847Z,101575.73
2022-11-05T21:31:37.709Z,101574.87
2022-11-05T21:34:05.893Z,101573.00
2022-11-05T21:36:34.062Z,101576.16
2022-11-05T21:39:02.353Z,101573.12
2022-11-05T21:41:30.678Z,101573.55
2022-11-05T21:43:59.110Z,101568.45
2022-11-05T21:46:27.662Z,101570.09
2022-11-05T21:48:55.876Z,101568.48
2022-11-05T21:51:23.952Z,101569.70
2022-11-05T21:53:52.334Z,101573.00
2022-11-05T21:56:24.123Z,101567.91
2022-11-05T21:58:52.278Z,101568.47
2022-11-05T22:01:20.665Z,101562.66
2022-11-05T22:03:48.762Z,101560.98
2022-11-05T22:06:17.013Z,101560.88
2022-11-05T22:08:45.212Z,101562.27
2022-11-05T22:11:13.471Z,101561.44
2022-11-05T22:13:41.652Z,101559.30
2022-11-05T22:16:09.833Z,101556.98
2022-11-05T22:18:38.104Z,101559.75
2022-11-05T22:21:06.595Z,101554.42
2022-11-05T22:23:34.985Z,101553.80
2022-11-05T22:26:03.067Z,101553.48
2022-11-05T22:28:31.233Z,101545.98
2022-11-05T22:30:59.716Z,101542.50
2022-11-05T22:33:27.812Z,101544.44
2022-11-05T22:35:55.980Z,101547.98
2022-11-05T22:38:24.521Z,101541.27
2022-11-05T22:40:52.845Z,101539.26
2022-11-05T22:43:21.020Z,101529.65
2022-11-05T22:45:49.506Z,101533.88
2022-11-05T22:48:17.583Z,101537.59
2022-11-05T22:50:45.761Z,101536.80
2022-11-05T22:53:14.268Z,101532.18
2022-11-05T22:55:42.320Z,101528.95
2022-11-05T22:58:11.123Z,101523.23
2022-11-05T23:00:40.121Z,101520.33
2022-11-05T23:03:11.083Z,101522.37
2022-11-05T23:05:39.336Z,101519.55
2022-11-05T23:08:07.627Z,101513.81
2022-11-05T23:10:38.654Z,101506.00
2022-11-05T23:13:06.708Z,101503.81
2022-11-05T23:15:35.016Z,101506.39
2022-11-05T23:18:03.120Z,101506.55
2022-11-05T23:20:31.470Z,101510.02
2022-11-05T23:22:59.754Z,101501.23
2022-11-05T23:25:28.037Z,101494.86
2022-11-05T23:27:56.311Z,101490.03
2022-11-05T23:30:27.021Z,101491.38
2022-11-05T23:32:56.197Z,101493.08
2022-11-05T23:35:24.736Z,101493.57
2022-11-05T23:37:52.810Z,101491.54
2022-11-05T23:40:28.154Z,101485.73
2022-11-05T23:42:57.605Z,101482.27
2022-11-05T23:45:26.249Z,101477.27
2022-11-05T23:47:54.633Z,101471.70
2022-11-05T23:50:23.015Z,101476.06
2022-11-05T23:52:53.581Z,101481.16
2022-11-05T23:55:25.410Z,101481.31
2022-11-05T23:57:53.520Z,101472.04
